createdAt,value
2018-05-02T00:00:32.984Z,99.90
2018-05-02T00:03:00.501Z,99.90
2018-05-02T00:05:28.025Z,99.90
2018-05-02T00:07:55.485Z,99.90
2018-05-02T00:10:22.956Z,99.90
2018-05-02T00:12:50.442Z,99.90
2018-05-02T00:15:18.701Z,99.90
2018-05-02T00:17:46.180Z,99.90
2018-05-02T00:20:13.644Z,99.90
2018-05-02T00:22:42.232Z,99.90
2018-05-02T00:25:10.471Z,99.90
2018-05-02T00:27:37.946Z,99.90
2018-05-02T00:30:05.427Z,99.90
2018-05-02T00:32:33.730Z,99.90
2018-05-02T00:35:01.217Z,99.90
2018-05-02T00:37:28.684Z,99.90
2018-05-02T00:39:56.169Z,99.90
2018-05-02T00:42:23.649Z,99.90
2018-05-02T00:44:51.112Z,99.90
2018-05-02T00:47:18.597Z,99.90
2018-05-02T00:49:46.065Z,99.90
2018-05-02T00:52:13.676Z,99.90
2018-05-02T00:54:41.140Z,99.90
2018-05-02T00:57:08.628Z,99.90
2018-05-02T00:59:36.089Z,99.90
2018-05-02T01:02:03.556Z,99.90
2018-05-02T01:04:31.041Z,99.90
2018-05-02T01:06:58.513Z,99.90
2018-05-02T01:09:25.992Z,99.90
2018-05-02T01:11:53.458Z,99.90
2018-05-02T01:14:20.944Z,99.90
2018-05-02T01:16:49.189Z,99.90
2018-05-02T01:19:16.664Z,99.90
2018-05-02T01:21:44.140Z,99.90
2018-05-02T01:24:12.385Z,99.90
2018-05-02T01:26:39.874Z,99.90
2018-05-02T01:29:08.108Z,99.90
2018-05-02T01:31:35.609Z,99.90
2018-05-02T01:34:03.185Z,99.90
2018-05-02T01:36:30.652Z,99.90
2018-05-02T01:38:58.136Z,99.90
2018-05-02T01:41:25.605Z,99.90
2018-05-02T01:43:53.084Z,99.90
2018-05-02T01:46:20.549Z,99.90
2018-05-02T01:48:59.946Z,99.90
2018-05-02T01:51:27.414Z,99.90
2018-05-02T01:53:55.661Z,99.90
2018-05-02T01:56:23.129Z,99.90
2018-05-02T01:58:50.675Z,99.90
2018-05-02T02:01:18.144Z,99.90
2018-05-02T02:03:45.630Z,99.90
2018-05-02T02:06:13.857Z,99.90
2018-05-02T02:08:41.353Z,99.90
2018-05-02T02:11:09.582Z,99.90
2018-05-02T02:13:37.056Z,99.90
2018-05-02T02:16:04.534Z,99.90
2018-05-02T02:18:32.789Z,99.90
2018-05-02T02:21:00.244Z,99.90
2018-05-02T02:23:27.721Z,99.90
2018-05-02T02:25:56.005Z,99.90
2018-05-02T02:28:23.444Z,99.90
2018-05-02T02:30:50.925Z,99.90
2018-05-02T02:33:19.228Z,99.90
2018-05-02T02:35:46.717Z,99.90
2018-05-02T02:38:14.186Z,99.90
2018-05-02T02:40:42.440Z,99.90
2018-05-02T02:43:09.903Z,99.90
2018-05-02T02:45:37.430Z,99.90
2018-05-02T02:48:04.897Z,99.90
2018-05-02T02:50:32.438Z,99.90
2018-05-02T02:52:59.905Z,99.90
2018-05-02T02:55:27.447Z,99.90
2018-05-02T02:57:54.916Z,99.90
2018-05-02T03:00:22.445Z,99.90
2018-05-02T03:02:49.923Z,99.90
2018-05-02T03:05:17.474Z,99.90
2018-05-02T03:07:44.958Z,99.90
2018-05-02T03:10:12.425Z,99.90
2018-05-02T03:12:39.901Z,99.90
2018-05-02T03:15:08.141Z,99.90
2018-05-02T03:17:35.642Z,99.90
2018-05-02T03:20:03.127Z,99.90
2018-05-02T03:22:30.610Z,99.90
2018-05-02T03:24:58.080Z,99.90
2018-05-02T03:27:25.568Z,99.90
2018-05-02T03:29:53.797Z,99.90
2018-05-02T03:32:21.272Z,99.90
2018-05-02T03:34:48.737Z,99.90
2018-05-02T03:37:17.024Z,99.90
2018-05-02T03:39:45.258Z,99.90
2018-05-02T03:42:12.753Z,99.90
2018-05-02T03:44:40.984Z,99.90
2018-05-02T03:47:08.455Z,99.90
2018-05-02T03:49:35.936Z,99.90
2018-05-02T03:52:04.169Z,99.90
2018-05-02T03:54:31.648Z,99.90
2018-05-02T03:56:59.120Z,99.90
2018-05-02T03:59:39.204Z,99.90
2018-05-02T04:02:18.559Z,99.90
2018-05-02T04:04:58.060Z,99.90
2018-05-02T04:07:25.525Z,99.90
2018-05-02T04:09:53.004Z,99.90
2018-05-02T04:12:20.468Z,99.90
2018-05-02T04:14:47.959Z,99.90
2018-05-02T04:17:15.421Z,99.90
2018-05-02T04:19:42.928Z,99.90
2018-05-02T04:22:10.404Z,99.90
2018-05-02T04:24:37.916Z,99.90
2018-05-02T04:27:05.391Z,99.90
2018-05-02T04:29:32.876Z,99.90
2018-05-02T04:32:00.342Z,99.90
2018-05-02T04:34:27.832Z,99.90
2018-05-02T04:36:57.434Z,99.90
2018-05-02T04:39:24.959Z,99.90
2018-05-02T04:41:52.495Z,99.90
2018-05-02T04:44:20.896Z,99.90
2018-05-02T04:46:48.458Z,99.90
2018-05-02T04:49:15.933Z,99.90
2018-05-02T04:51:44.184Z,99.90
2018-05-02T04:54:11.652Z,99.90
2018-05-02T04:56:39.149Z,99.90
2018-05-02T04:59:06.611Z,99.90
2018-05-02T05:01:34.093Z,99.90
2018-05-02T05:04:01.556Z,99.90
2018-05-02T05:06:29.038Z,99.90
2018-05-02T05:08:56.501Z,99.90
2018-05-02T05:11:24.746Z,99.90
2018-05-02T05:13:52.208Z,99.90
2018-05-02T05:16:19.689Z,99.90
2018-05-02T05:18:47.916Z,99.90
2018-05-02T05:21:15.400Z,99.90
2018-05-02T05:23:42.868Z,99.90
2018-05-02T05:26:10.378Z,99.90
2018-05-02T05:28:37.866Z,99.90
2018-05-02T05:31:05.340Z,99.90
2018-05-02T05:33:33.582Z,99.90
2018-05-02T05:36:01.045Z,99.90
2018-05-02T05:38:28.534Z,99.90
2018-05-02T05:40:56.026Z,99.90
2018-05-02T05:43:23.500Z,99.90
2018-05-02T05:45:50.976Z,99.90
2018-05-02T05:48:19.222Z,99.90
2018-05-02T05:50:46.681Z,99.90
2018-05-02T05:53:14.160Z,99.90
2018-05-02T05:55:41.629Z,99.90
2018-05-02T05:58:10.613Z,99.90
2018-05-02T06:00:38.081Z,99.90
2018-05-02T06:03:05.573Z,99.90
2018-05-02T06:05:33.053Z,99.90
2018-05-02T06:08:00.512Z,99.90
2018-05-02T06:10:28.029Z,99.90
2018-05-02T06:12:56.261Z,99.90
2018-05-02T06:15:23.751Z,99.90
2018-05-02T06:17:51.997Z,99.90
2018-05-02T06:20:19.498Z,99.90
2018-05-02T06:22:46.968Z,99.90
2018-05-02T06:25:14.465Z,99.90
2018-05-02T06:27:41.934Z,99.90
2018-05-02T06:30:09.421Z,99.90
2018-05-02T06:32:36.927Z,99.90
2018-05-02T06:35:04.455Z,99.90
2018-05-02T06:37:31.931Z,99.90
2018-05-02T06:39:59.413Z,99.90
2018-05-02T06:42:26.880Z,99.90
2018-05-02T06:44:54.370Z,99.90
2018-05-02T06:47:21.855Z,99.90
2018-05-02T06:49:49.321Z,99.90
2018-05-02T06:52:16.851Z,99.90
2018-05-02T06:54:44.341Z,99.90
2018-05-02T06:57:11.809Z,99.90
2018-05-02T06:59:39.276Z,99.90
2018-05-02T07:02:07.536Z,99.90
2018-05-02T07:04:35.002Z,99.90
2018-05-02T07:07:02.534Z,99.90
2018-05-02T07:09:30.024Z,99.90
2018-05-02T07:11:58.281Z,99.90
2018-05-02T07:14:25.753Z,99.90
2018-05-02T07:16:54.001Z,99.00
2018-05-02T07:19:21.484Z,99.00
2018-05-02T07:21:49.771Z,99.40
2018-05-02T07:24:18.001Z,98.40
2018-05-02T07:26:45.464Z,98.40
2018-05-02T07:29:12.963Z,97.60
2018-05-02T07:31:41.257Z,98.50
2018-05-02T07:34:08.737Z,98.50
2018-05-02T07:36:36.201Z,96.90
2018-05-02T07:39:03.701Z,96.50
2018-05-02T07:41:31.951Z,94.80
2018-05-02T07:43:59.433Z,94.80
2018-05-02T07:46:27.664Z,94.20
2018-05-02T07:48:55.152Z,94.20
2018-05-02T07:51:23.381Z,94.00
2018-05-02T07:53:50.864Z,94.00
2018-05-02T07:56:18.341Z,93.70
2018-05-02T07:58:46.649Z,93.80
2018-05-02T08:01:14.117Z,93.90
2018-05-02T08:03:41.597Z,92.90
2018-05-02T08:06:09.068Z,94.10
2018-05-02T08:08:36.555Z,93.00
2018-05-02T08:11:04.071Z,92.60
2018-05-02T08:13:31.601Z,91.60
2018-05-02T08:15:59.085Z,90.60
2018-05-02T08:18:26.549Z,91.40
2018-05-02T08:20:54.049Z,90.50
2018-05-02T08:23:21.523Z,90.40
2018-05-02T08:25:49.069Z,91.10
2018-05-02T08:28:16.536Z,90.70
2018-05-02T08:30:44.025Z,84.70
2018-05-02T08:33:11.489Z,87.20
2018-05-02T08:35:39.750Z,84.60
2018-05-02T08:38:07.214Z,84.70
2018-05-02T08:40:34.696Z,88.00
2018-05-02T08:43:02.942Z,85.20
2018-05-02T08:45:30.420Z,85.30
2018-05-02T08:47:58.657Z,84.80
2018-05-02T08:50:26.152Z,84.80
2018-05-02T08:52:54.385Z,86.80
2018-05-02T08:55:21.845Z,86.60
2018-05-02T08:57:50.848Z,85.10
2018-05-02T09:00:18.357Z,85.00
2018-05-02T09:02:45.853Z,84.50
2018-05-02T09:05:13.345Z,84.60
2018-05-02T09:07:41.605Z,82.00
2018-05-02T09:10:09.106Z,82.00
2018-05-02T09:12:36.568Z,82.70
2018-05-02T09:15:04.069Z,80.00
2018-05-02T09:17:31.547Z,79.70
2018-05-02T09:19:59.802Z,75.60
2018-05-02T09:22:27.273Z,75.50
2018-05-02T09:24:55.543Z,80.60
2018-05-02T09:27:23.808Z,77.90
2018-05-02T09:29:51.276Z,77.90
2018-05-02T09:32:18.785Z,78.70
2018-05-02T09:34:46.248Z,79.30
2018-05-02T09:37:13.761Z,77.30
2018-05-02T09:39:41.232Z,73.80
2018-05-02T09:42:08.696Z,75.90
2018-05-02T09:44:36.181Z,77.20
2018-05-02T09:47:03.660Z,78.70
2018-05-02T09:49:31.151Z,79.50
2018-05-02T09:51:58.669Z,81.30
2018-05-02T09:54:26.273Z,82.70
2018-05-02T09:56:53.749Z,82.30
2018-05-02T09:59:21.217Z,83.40
2018-05-02T10:01:48.741Z,84.90
2018-05-02T10:04:16.205Z,87.20
2018-05-02T10:06:43.685Z,86.20
2018-05-02T10:09:11.148Z,85.70
2018-05-02T10:11:38.768Z,83.30
2018-05-02T10:14:06.241Z,81.70
2018-05-02T10:16:33.781Z,82.90
2018-05-02T10:19:01.260Z,79.90
2018-05-02T10:21:28.737Z,81.70
2018-05-02T10:23:56.224Z,78.40
2018-05-02T10:26:24.525Z,80.30
2018-05-02T10:28:51.957Z,80.30
2018-05-02T10:31:20.188Z,80.50
2018-05-02T10:33:47.676Z,80.50
2018-05-02T10:36:15.910Z,81.40
2018-05-02T10:38:43.392Z,80.60
2018-05-02T10:41:10.856Z,80.00
2018-05-02T10:43:38.348Z,82.60
2018-05-02T10:46:05.835Z,82.30
2018-05-02T10:48:33.304Z,78.90
2018-05-02T10:51:00.789Z,77.30
2018-05-02T10:53:29.046Z,75.70
2018-05-02T10:55:56.673Z,75.70
2018-05-02T10:58:24.142Z,75.90
2018-05-02T11:00:51.624Z,75.60
2018-05-02T11:03:19.097Z,76.90
2018-05-02T11:05:47.353Z,76.40
2018-05-02T11:08:14.860Z,76.30
2018-05-02T11:10:43.201Z,75.40
2018-05-02T11:13:11.436Z,76.00
2018-05-02T11:15:38.937Z,75.80
2018-05-02T11:18:07.165Z,73.70
2018-05-02T11:20:34.645Z,73.80
2018-05-02T11:23:02.117Z,72.90
2018-05-02T11:25:30.393Z,76.50
2018-05-02T11:27:58.637Z,72.40
2018-05-02T11:30:26.108Z,72.30
2018-05-02T11:32:53.604Z,72.20
2018-05-02T11:35:21.069Z,72.10
2018-05-02T11:37:48.553Z,69.70
2018-05-02T11:40:16.261Z,71.10
2018-05-02T11:42:44.505Z,70.30
2018-05-02T11:45:11.977Z,70.00
2018-05-02T11:47:39.469Z,68.40
2018-05-02T11:50:06.938Z,70.60
2018-05-02T11:52:34.425Z,71.90
2018-05-02T11:55:01.893Z,69.40
2018-05-02T11:57:29.392Z,69.00
2018-05-02T11:59:56.856Z,70.00
2018-05-02T12:02:24.345Z,68.80
2018-05-02T12:04:51.821Z,70.20
2018-05-02T12:07:19.316Z,70.60
2018-05-02T12:09:46.789Z,70.10
2018-05-02T12:12:14.252Z,67.60
2018-05-02T12:14:41.735Z,66.90
2018-05-02T12:17:09.204Z,68.80
2018-05-02T12:19:36.697Z,68.70
2018-05-02T12:22:04.165Z,67.50
2018-05-02T12:24:31.644Z,68.20
2018-05-02T12:26:59.125Z,69.30
2018-05-02T12:29:26.610Z,68.40
2018-05-02T12:31:54.847Z,66.30
2018-05-02T12:34:22.333Z,66.40
2018-05-02T12:36:50.565Z,66.40
2018-05-02T12:39:18.061Z,66.30
2018-05-02T12:41:46.301Z,65.30
2018-05-02T12:44:13.790Z,65.30
2018-05-02T12:46:42.090Z,67.80
2018-05-02T12:49:09.536Z,67.90
2018-05-02T12:51:37.016Z,66.60
2018-05-02T12:54:04.488Z,67.60
2018-05-02T12:56:31.975Z,67.00
2018-05-02T12:58:59.452Z,67.10
2018-05-02T13:01:27.730Z,66.60
2018-05-02T13:03:55.961Z,66.80
2018-05-02T13:06:23.609Z,66.80
2018-05-02T13:08:51.074Z,67.10
2018-05-02T13:11:18.594Z,67.00
2018-05-02T13:13:46.065Z,66.50
2018-05-02T13:16:13.554Z,65.40
2018-05-02T13:18:41.798Z,66.50
2018-05-02T13:21:09.287Z,66.50
2018-05-02T13:23:36.752Z,67.20
2018-05-02T13:26:05.556Z,64.50
2018-05-02T13:28:33.861Z,69.30
2018-05-02T13:31:02.020Z,69.40
2018-05-02T13:33:29.489Z,68.50
2018-05-02T13:35:56.952Z,65.70
2018-05-02T13:38:24.501Z,63.80
2018-05-02T13:40:51.970Z,66.00
2018-05-02T13:43:19.448Z,64.50
2018-05-02T13:45:46.916Z,66.40
2018-05-02T13:48:14.445Z,66.90
2018-05-02T13:50:41.941Z,65.90
2018-05-02T13:53:09.424Z,66.30
2018-05-02T13:55:37.729Z,65.40
2018-05-02T13:58:05.238Z,65.20
2018-05-02T14:00:33.494Z,65.10
2018-05-02T14:03:00.997Z,65.00
2018-05-02T14:05:28.476Z,65.30
2018-05-02T14:07:55.980Z,67.10
2018-05-02T14:10:24.257Z,65.80
2018-05-02T14:12:51.784Z,65.70
2018-05-02T14:15:19.286Z,67.40
2018-05-02T14:17:47.517Z,65.60
2018-05-02T14:20:15.013Z,65.60
2018-05-02T14:22:43.253Z,67.90
2018-05-02T14:25:10.732Z,67.80
2018-05-02T14:27:38.271Z,67.50
2018-05-02T14:30:05.753Z,67.50
2018-05-02T14:32:33.992Z,70.60
2018-05-02T14:35:01.473Z,70.60
2018-05-02T14:37:28.940Z,72.10
2018-05-02T14:39:57.189Z,74.00
2018-05-02T14:42:24.665Z,74.10
2018-05-02T14:44:52.921Z,71.70
2018-05-02T14:47:20.386Z,71.20
2018-05-02T14:49:47.869Z,71.50
2018-05-02T14:52:15.349Z,70.50
2018-05-02T14:54:42.929Z,72.10
2018-05-02T14:57:10.312Z,71.80
2018-05-02T14:59:37.777Z,71.30
2018-05-02T15:02:05.331Z,71.70
2018-05-02T15:04:32.733Z,72.70
2018-05-02T15:07:00.223Z,73.50
2018-05-02T15:09:27.712Z,72.60
2018-05-02T15:11:55.960Z,73.20
2018-05-02T15:14:23.440Z,73.60
2018-05-02T15:16:51.708Z,71.20
2018-05-02T15:19:19.188Z,71.20
2018-05-02T15:21:46.677Z,73.30
2018-05-02T15:24:14.153Z,72.30
2018-05-02T15:26:41.679Z,72.50
2018-05-02T15:29:09.140Z,73.40
2018-05-02T15:31:36.659Z,73.60
2018-05-02T15:34:04.889Z,74.10
2018-05-02T15:36:32.357Z,74.10
2018-05-02T15:38:59.836Z,70.40
2018-05-02T15:41:28.074Z,72.10
2018-05-02T15:43:56.557Z,71.90
2018-05-02T15:46:24.036Z,70.60
2018-05-02T15:48:51.521Z,71.00
2018-05-02T15:51:19.751Z,70.70
2018-05-02T15:53:47.232Z,70.60
2018-05-02T15:56:14.736Z,71.90
2018-05-02T15:58:42.292Z,71.30
2018-05-02T16:01:09.772Z,70.00
2018-05-02T16:03:37.810Z,71.40
2018-05-02T16:06:05.278Z,71.50
2018-05-02T16:08:32.757Z,72.70
2018-05-02T16:11:00.368Z,71.70
2018-05-02T16:13:27.793Z,73.10
2018-05-02T16:15:55.270Z,72.70
2018-05-02T16:18:23.501Z,74.40
2018-05-02T16:20:50.993Z,74.30
2018-05-02T16:23:19.226Z,71.80
2018-05-02T16:25:46.704Z,71.70
2018-05-02T16:28:14.176Z,70.70
2018-05-02T16:30:42.489Z,71.30
2018-05-02T16:33:09.965Z,71.20
2018-05-02T16:35:37.506Z,71.60
2018-05-02T16:38:04.981Z,71.10
2018-05-02T16:40:32.465Z,72.00
2018-05-02T16:42:59.934Z,71.60
2018-05-02T16:45:28.190Z,72.00
2018-05-02T16:47:55.667Z,72.00
2018-05-02T16:50:23.957Z,72.10
2018-05-02T16:52:51.425Z,72.10
2018-05-02T16:55:18.987Z,72.90
2018-05-02T16:57:46.449Z,74.90
2018-05-02T17:00:14.002Z,74.80
2018-05-02T17:02:41.497Z,72.90
2018-05-02T17:05:08.998Z,71.20
2018-05-02T17:07:36.484Z,71.40
2018-05-02T17:10:03.969Z,71.50
2018-05-02T17:12:31.467Z,73.60
2018-05-02T17:14:58.937Z,72.60
2018-05-02T17:17:26.502Z,72.50
2018-05-02T17:19:54.009Z,72.30
2018-05-02T17:22:21.554Z,72.80
2018-05-02T17:24:48.985Z,71.50
2018-05-02T17:27:16.449Z,72.50
2018-05-02T17:29:43.953Z,73.00
2018-05-02T17:32:11.424Z,73.80
2018-05-02T17:34:39.000Z,73.20
2018-05-02T17:37:06.480Z,75.00
2018-05-02T17:39:33.962Z,73.80
2018-05-02T17:42:01.446Z,74.00
2018-05-02T17:44:30.023Z,75.20
2018-05-02T17:46:57.508Z,75.10
2018-05-02T17:49:24.981Z,76.00
2018-05-02T17:51:52.449Z,75.40
2018-05-02T17:54:19.951Z,75.20
2018-05-02T17:56:48.181Z,76.70
2018-05-02T17:59:15.674Z,76.70
2018-05-02T18:01:43.980Z,77.50
2018-05-02T18:04:11.450Z,78.00
2018-05-02T18:06:38.957Z,77.00
2018-05-02T18:09:07.208Z,77.20
2018-05-02T18:11:34.696Z,77.10
2018-05-02T18:14:02.933Z,76.20
2018-05-02T18:16:31.945Z,76.80
2018-05-02T18:18:59.432Z,76.80
2018-05-02T18:21:26.920Z,75.30
2018-05-02T18:23:54.381Z,76.10
2018-05-02T18:26:21.865Z,76.60
2018-05-02T18:28:49.375Z,76.40
2018-05-02T18:31:16.844Z,76.90
2018-05-02T18:33:44.351Z,77.20
2018-05-02T18:36:11.833Z,78.50
2018-05-02T18:38:40.085Z,79.20
2018-05-02T18:41:08.322Z,79.30
2018-05-02T18:43:35.800Z,78.80
2018-05-02T18:46:03.308Z,79.70
2018-05-02T18:48:30.799Z,80.40
2018-05-02T18:50:58.266Z,81.50
2018-05-02T18:53:26.075Z,81.40
2018-05-02T18:55:53.551Z,81.70
2018-05-02T18:58:21.025Z,81.80
2018-05-02T19:00:48.558Z,82.40
2018-05-02T19:03:16.049Z,83.00
2018-05-02T19:05:43.523Z,83.00
2018-05-02T19:08:11.036Z,82.80
2018-05-02T19:10:38.501Z,82.60
2018-05-02T19:13:05.965Z,82.20
2018-05-02T19:15:33.495Z,82.60
2018-05-02T19:18:06.724Z,82.50
2018-05-02T19:20:37.869Z,82.40
2018-05-02T19:23:05.337Z,82.70
2018-05-02T19:25:38.615Z,84.00
2018-05-02T19:28:06.128Z,84.70
2018-05-02T19:30:33.592Z,85.70
2018-05-02T19:33:06.710Z,86.30
2018-05-02T19:35:34.264Z,87.30
2018-05-02T19:38:01.701Z,87.70
2018-05-02T19:40:34.804Z,89.20
2018-05-02T19:43:07.881Z,90.50
2018-05-02T19:45:35.376Z,90.70
2018-05-02T19:48:02.841Z,90.90
2018-05-02T19:50:31.088Z,91.30
2018-05-02T19:52:58.582Z,91.50
2018-05-02T19:55:26.809Z,92.40
2018-05-02T19:57:55.928Z,92.60
2018-05-02T20:00:29.165Z,92.70
2018-05-02T20:03:01.662Z,93.00
2018-05-02T20:05:29.132Z,93.20
2018-05-02T20:07:56.616Z,93.40
2018-05-02T20:10:29.845Z,93.90
2018-05-02T20:13:03.066Z,93.80
2018-05-02T20:15:30.537Z,93.00
2018-05-02T20:17:58.045Z,93.20
2018-05-02T20:20:25.509Z,93.50
2018-05-02T20:22:52.977Z,93.40
2018-05-02T20:25:20.552Z,93.60
2018-05-02T20:27:47.941Z,93.40
2018-05-02T20:30:16.217Z,93.40
2018-05-02T20:32:44.460Z,93.90
2018-05-02T20:35:11.924Z,93.90
2018-05-02T20:37:39.449Z,94.00
2018-05-02T20:40:06.916Z,94.40
2018-05-02T20:42:34.405Z,94.70
2018-05-02T20:45:01.875Z,94.80
2018-05-02T20:47:30.117Z,95.60
2018-05-02T20:49:57.601Z,95.60
2018-05-02T20:52:25.833Z,95.90
2018-05-02T20:54:53.382Z,95.90
2018-05-02T20:57:21.576Z,96.60
2018-05-02T20:59:49.096Z,96.60
2018-05-02T21:02:16.576Z,97.10
2018-05-02T21:04:44.052Z,97.50
2018-05-02T21:07:11.542Z,97.50
2018-05-02T21:09:39.771Z,98.50
2018-05-02T21:12:07.232Z,98.50
2018-05-02T21:14:34.719Z,98.40
2018-05-02T21:17:02.972Z,99.10
2018-05-02T21:19:30.453Z,99.10
2018-05-02T21:21:58.688Z,99.40
2018-05-02T21:24:26.158Z,99.50
2018-05-02T21:26:53.645Z,99.30
2018-05-02T21:29:21.128Z,99.40
2018-05-02T21:31:48.637Z,99.50
2018-05-02T21:34:16.879Z,99.40
2018-05-02T21:36:44.401Z,99.40
2018-05-02T21:39:12.069Z,99.10
2018-05-02T21:41:39.540Z,99.00
2018-05-02T21:44:07.017Z,99.50
2018-05-02T21:46:34.493Z,99.20
2018-05-02T21:49:02.029Z,99.40
2018-05-02T21:51:29.505Z,99.20
2018-05-02T21:53:56.990Z,99.60
2018-05-02T21:56:25.225Z,99.90
2018-05-02T21:58:52.692Z,99.90
2018-05-02T22:01:20.183Z,99.90
2018-05-02T22:03:47.652Z,99.90
2018-05-02T22:06:15.133Z,99.90
2018-05-02T22:08:42.597Z,99.90
2018-05-02T22:11:10.384Z,99.90
2018-05-02T22:13:38.624Z,99.90
2018-05-02T22:16:06.101Z,99.90
2018-05-02T22:18:33.599Z,99.90
2018-05-02T22:21:01.064Z,99.90
2018-05-02T22:23:28.553Z,99.90
2018-05-02T22:25:56.029Z,99.90
2018-05-02T22:28:23.513Z,99.90
2018-05-02T22:30:51.751Z,99.90
2018-05-02T22:33:19.241Z,99.90
2018-05-02T22:35:47.497Z,99.90
2018-05-02T22:38:14.964Z,99.90
2018-05-02T22:40:43.217Z,99.90
2018-05-02T22:43:10.690Z,99.90
2018-05-02T22:45:38.948Z,99.90
2018-05-02T22:48:06.426Z,99.90
2018-05-02T22:50:34.660Z,99.90
2018-05-02T22:53:02.165Z,99.90
2018-05-02T22:55:30.409Z,99.90
2018-05-02T22:57:57.893Z,99.90
2018-05-02T23:00:26.132Z,99.90
2018-05-02T23:02:53.621Z,99.90
2018-05-02T23:05:21.922Z,99.90
2018-05-02T23:07:49.424Z,99.90
2018-05-02T23:10:17.672Z,99.90
2018-05-02T23:12:45.140Z,99.90
2018-05-02T23:15:12.620Z,99.90
2018-05-02T23:17:40.088Z,99.90
2018-05-02T23:20:08.345Z,99.90
2018-05-02T23:22:35.814Z,99.90
2018-05-02T23:25:03.295Z,99.90
2018-05-02T23:27:31.643Z,99.90
2018-05-02T23:29:59.122Z,99.90
2018-05-02T23:32:27.494Z,99.90
2018-05-02T23:34:55.727Z,99.90
2018-05-02T23:37:23.227Z,99.90
2018-05-02T23:39:51.464Z,99.90
2018-05-02T23:42:18.935Z,99.90
2018-05-02T23:44:47.944Z,99.90
2018-05-02T23:47:16.177Z,99.90
2018-05-02T23:49:43.676Z,99.90
2018-05-02T23:52:11.909Z,99.90
2018-05-02T23:54:39.401Z,99.90
2018-05-02T23:57:07.769Z,99.90
2018-05-02T23:59:36.131Z,99.90
